sensor_id;sensor_type;location;lat;lon;timestamp;temperature;humidity
16736;DHT22;17990;49.548;9.730;2022-12-18T00:02:23;-10.90;99.90
16736;DHT22;17990;49.548;9.730;2022-12-18T00:04:50;-10.90;99.90
16736;DHT22;17990;49.548;9.730;2022-12-18T00:07:17;-11.00;99.90
16736;DHT22;17990;49.548;9.730;2022-12-18T00:09:43;-11.00;99.90
16736;DHT22;17990;49.548;9.730;2022-12-18T00:12:10;-11.00;99.90
16736;DHT22;17990;49.548;9.730;2022-12-18T00:14:38;-11.00;99.90
16736;DHT22;17990;49.548;9.730;2022-12-18T00:17:05;-11.00;99.90
16736;DHT22;17990;49.548;9.730;2022-12-18T00:19:32;-11.10;99.90
16736;DHT22;17990;49.548;9.730;2022-12-18T00:21:59;-11.10;99.90
16736;DHT22;17990;49.548;9.730;2022-12-18T00:24:26;-11.00;99.90
16736;DHT22;17990;49.548;9.730;2022-12-18T00:26:53;-11.10;99.90
16736;DHT22;17990;49.548;9.730;2022-12-18T00:29:20;-11.00;99.90
16736;DHT22;17990;49.548;9.730;2022-12-18T00:31:48;-11.00;99.90
16736;DHT22;17990;49.548;9.730;2022-12-18T00:34:15;-11.00;99.90
16736;DHT22;17990;49.548;9.730;2022-12-18T00:36:42;-11.10;99.90
16736;DHT22;17990;49.548;9.730;2022-12-18T00:39:11;-11.10;99.90
16736;DHT22;17990;49.548;9.730;2022-12-18T00:41:38;-11.10;99.90
16736;DHT22;17990;49.548;9.730;2022-12-18T00:44:21;-11.10;99.90
16736;DHT22;17990;49.548;9.730;2022-12-18T00:46:50;-11.10;99.90
16736;DHT22;17990;49.548;9.730;2022-12-18T00:49:18;-11.20;99.90
16736;DHT22;17990;49.548;9.730;2022-12-18T00:51:45;-11.20;99.90
16736;DHT22;17990;49.548;9.730;2022-12-18T00:54:12;-11.20;99.90
16736;DHT22;17990;49.548;9.730;2022-12-18T00:56:40;-11.20;99.90
16736;DHT22;17990;49.548;9.730;2022-12-18T00:59:07;-11.30;99.90
16736;DHT22;17990;49.548;9.730;2022-12-18T01:01:34;-11.30;99.90
16736;DHT22;17990;49.548;9.730;2022-12-18T01:04:03;-11.20;99.90
16736;DHT22;17990;49.548;9.730;2022-12-18T01:06:30;-11.20;99.90
16736;DHT22;17990;49.548;9.730;2022-12-18T01:08:57;-11.20;99.90
16736;DHT22;17990;49.548;9.730;2022-12-18T01:11:24;-11.20;99.90
16736;DHT22;17990;49.548;9.730;2022-12-18T01:13:52;-11.30;99.90
16736;DHT22;17990;49.548;9.730;2022-12-18T01:16:19;-11.30;99.90
16736;DHT22;17990;49.548;9.730;2022-12-18T01:18:46;-11.30;99.90
16736;DHT22;17990;49.548;9.730;2022-12-18T01:21:15;-11.30;99.90
16736;DHT22;17990;49.548;9.730;2022-12-18T01:23:44;-11.30;99.90
16736;DHT22;17990;49.548;9.730;2022-12-18T01:26:13;-11.30;99.90
16736;DHT22;17990;49.548;9.730;2022-12-18T01:28:41;-11.30;99.90
16736;DHT22;17990;49.548;9.730;2022-12-18T01:31:10;-11.30;99.90
16736;DHT22;17990;49.548;9.730;2022-12-18T01:33:42;-11.30;99.90
16736;DHT22;17990;49.548;9.730;2022-12-18T01:36:16;-11.30;99.90
16736;DHT22;17990;49.548;9.730;2022-12-18T01:38:46;-11.30;99.90
16736;DHT22;17990;49.548;9.730;2022-12-18T01:41:13;-11.30;99.90
16736;DHT22;17990;49.548;9.730;2022-12-18T01:43:50;-11.20;99.90
16736;DHT22;17990;49.548;9.730;2022-12-18T01:46:19;-11.30;99.90
16736;DHT22;17990;49.548;9.730;2022-12-18T01:48:49;-11.30;99.90
16736;DHT22;17990;49.548;9.730;2022-12-18T01:51:19;-11.30;99.90
16736;DHT22;17990;49.548;9.730;2022-12-18T01:53:47;-11.30;99.90
16736;DHT22;17990;49.548;9.730;2022-12-18T01:56:15;-11.30;99.90
16736;DHT22;17990;49.548;9.730;2022-12-18T01:58:50;-11.30;99.90
16736;DHT22;17990;49.548;9.730;2022-12-18T02:01:22;-11.40;99.90
16736;DHT22;17990;49.548;9.730;2022-12-18T02:03:50;-11.40;99.90
16736;DHT22;17990;49.548;9.730;2022-12-18T02:06:23;-11.40;99.90
16736;DHT22;17990;49.548;9.730;2022-12-18T02:09:02;-11.40;99.90
16736;DHT22;17990;49.548;9.730;2022-12-18T02:11:40;-11.40;99.90
16736;DHT22;17990;49.548;9.730;2022-12-18T02:14:18;-11.50;99.90
16736;DHT22;17990;49.548;9.730;2022-12-18T02:16:52;-11.50;99.90
16736;DHT22;17990;49.548;9.730;2022-12-18T02:19:39;-11.50;99.90
16736;DHT22;17990;49.548;9.730;2022-12-18T02:22:21;-11.50;99.90
16736;DHT22;17990;49.548;9.730;2022-12-18T02:25:10;-11.50;99.90
16736;DHT22;17990;49.548;9.730;2022-12-18T02:27:45;-11.50;99.90
16736;DHT22;17990;49.548;9.730;2022-12-18T02:30:14;-11.60;99.90
16736;DHT22;17990;49.548;9.730;2022-12-18T02:32:44;-11.70;99.90
16736;DHT22;17990;49.548;9.730;2022-12-18T02:35:16;-11.80;99.90
16736;DHT22;17990;49.548;9.730;2022-12-18T02:37:47;-11.80;99.90
16736;DHT22;17990;49.548;9.730;2022-12-18T02:40:15;-11.70;99.90
16736;DHT22;17990;49.548;9.730;2022-12-18T02:42:45;-11.70;99.90
16736;DHT22;17990;49.548;9.730;2022-12-18T02:45:12;-11.70;99.90
16736;DHT22;17990;49.548;9.730;2022-12-18T02:47:40;-11.60;99.90
16736;DHT22;17990;49.548;9.730;2022-12-18T02:50:15;-11.70;99.90
16736;DHT22;17990;49.548;9.730;2022-12-18T02:52:53;-11.70;99.90
16736;DHT22;17990;49.548;9.730;2022-12-18T02:55:31;-11.60;99.90
16736;DHT22;17990;49.548;9.730;2022-12-18T02:58:14;-11.60;99.90
16736;DHT22;17990;49.548;9.730;2022-12-18T03:00:47;-11.60;99.90
16736;DHT22;17990;49.548;9.730;2022-12-18T03:03:22;-11.60;99.90
16736;DHT22;17990;49.548;9.730;2022-12-18T03:05:55;-11.60;99.90
16736;DHT22;17990;49.548;9.730;2022-12-18T03:08:28;-11.60;99.90
16736;DHT22;17990;49.548;9.730;2022-12-18T03:10:58;-11.60;99.90
16736;DHT22;17990;49.548;9.730;2022-12-18T03:13:33;-11.60;99.90
16736;DHT22;17990;49.548;9.730;2022-12-18T03:16:03;-11.60;99.90
16736;DHT22;17990;49.548;9.730;2022-12-18T03:18:36;-11.70;99.90
16736;DHT22;17990;49.548;9.730;2022-12-18T03:21:06;-11.70;99.90
16736;DHT22;17990;49.548;9.730;2022-12-18T03:23:38;-11.70;99.90
16736;DHT22;17990;49.548;9.730;2022-12-18T03:26:10;-11.70;99.90
16736;DHT22;17990;49.548;9.730;2022-12-18T03:28:45;-11.80;99.90
16736;DHT22;17990;49.548;9.730;2022-12-18T03:31:16;-11.80;99.90
16736;DHT22;17990;49.548;9.730;2022-12-18T03:33:47;-11.90;99.90
16736;DHT22;17990;49.548;9.730;2022-12-18T03:36:18;-11.90;99.90
16736;DHT22;17990;49.548;9.730;2022-12-18T03:38:45;-11.90;99.90
16736;DHT22;17990;49.548;9.730;2022-12-18T03:41:16;-11.90;99.90
16736;DHT22;17990;49.548;9.730;2022-12-18T03:43:51;-11.90;99.90
16736;DHT22;17990;49.548;9.730;2022-12-18T03:46:26;-12.00;99.90
16736;DHT22;17990;49.548;9.730;2022-12-18T03:48:59;-12.00;99.90
16736;DHT22;17990;49.548;9.730;2022-12-18T03:51:36;-12.00;99.90
16736;DHT22;17990;49.548;9.730;2022-12-18T03:54:05;-12.00;99.90
16736;DHT22;17990;49.548;9.730;2022-12-18T03:56:35;-11.90;99.90
16736;DHT22;17990;49.548;9.730;2022-12-18T03:59:08;-11.90;99.90
16736;DHT22;17990;49.548;9.730;2022-12-18T04:01:39;-11.90;99.90
16736;DHT22;17990;49.548;9.730;2022-12-18T04:04:09;-12.00;99.90
16736;DHT22;17990;49.548;9.730;2022-12-18T04:06:37;-12.00;99.90
16736;DHT22;17990;49.548;9.730;2022-12-18T04:09:05;-12.00;99.90
16736;DHT22;17990;49.548;9.730;2022-12-18T04:11:32;-12.00;99.90
16736;DHT22;17990;49.548;9.730;2022-12-18T04:13:59;-12.00;99.90
16736;DHT22;17990;49.548;9.730;2022-12-18T04:16:27;-12.00;99.90
16736;DHT22;17990;49.548;9.730;2022-12-18T04:18:54;-12.00;99.90
16736;DHT22;17990;49.548;9.730;2022-12-18T04:21:21;-12.00;99.90
16736;DHT22;17990;49.548;9.730;2022-12-18T04:23:48;-12.00;99.90
16736;DHT22;17990;49.548;9.730;2022-12-18T04:26:15;-12.00;99.90
16736;DHT22;17990;49.548;9.730;2022-12-18T04:28:42;-12.10;99.90
16736;DHT22;17990;49.548;9.730;2022-12-18T04:31:09;-12.10;99.90
16736;DHT22;17990;49.548;9.730;2022-12-18T04:33:37;-12.20;99.90
16736;DHT22;17990;49.548;9.730;2022-12-18T04:36:05;-12.40;99.90
16736;DHT22;17990;49.548;9.730;2022-12-18T04:38:32;-12.30;99.90
16736;DHT22;17990;49.548;9.730;2022-12-18T04:40:59;-12.30;99.90
16736;DHT22;17990;49.548;9.730;2022-12-18T04:43:26;-12.30;99.90
16736;DHT22;17990;49.548;9.730;2022-12-18T04:45:53;-12.30;99.90
16736;DHT22;17990;49.548;9.730;2022-12-18T04:48:20;-12.20;99.90
16736;DHT22;17990;49.548;9.730;2022-12-18T04:50:48;-12.30;99.90
16736;DHT22;17990;49.548;9.730;2022-12-18T04:53:15;-12.30;99.90
16736;DHT22;17990;49.548;9.730;2022-12-18T04:55:42;-12.30;99.90
16736;DHT22;17990;49.548;9.730;2022-12-18T04:58:09;-12.50;99.90
16736;DHT22;17990;49.548;9.730;2022-12-18T05:00:36;-12.40;99.90
16736;DHT22;17990;49.548;9.730;2022-12-18T05:03:03;-12.40;99.90
16736;DHT22;17990;49.548;9.730;2022-12-18T05:05:30;-12.40;99.90
16736;DHT22;17990;49.548;9.730;2022-12-18T05:07:58;-12.40;99.90
16736;DHT22;17990;49.548;9.730;2022-12-18T05:10:25;-12.40;99.90
16736;DHT22;17990;49.548;9.730;2022-12-18T05:12:52;-12.40;99.90
16736;DHT22;17990;49.548;9.730;2022-12-18T05:15:27;-12.40;99.90
16736;DHT22;17990;49.548;9.730;2022-12-18T05:17:55;-12.40;99.90
16736;DHT22;17990;49.548;9.730;2022-12-18T05:20:23;-12.40;99.90
16736;DHT22;17990;49.548;9.730;2022-12-18T05:22:50;-12.40;99.90
16736;DHT22;17990;49.548;9.730;2022-12-18T05:25:19;-12.40;99.90
16736;DHT22;17990;49.548;9.730;2022-12-18T05:27:47;-12.40;99.90
16736;DHT22;17990;49.548;9.730;2022-12-18T05:30:14;-12.50;99.90
16736;DHT22;17990;49.548;9.730;2022-12-18T05:32:42;-12.50;99.90
16736;DHT22;17990;49.548;9.730;2022-12-18T05:35:10;-12.60;99.90
16736;DHT22;17990;49.548;9.730;2022-12-18T05:37:37;-12.60;99.90
16736;DHT22;17990;49.548;9.730;2022-12-18T05:40:05;-12.50;99.90
16736;DHT22;17990;49.548;9.730;2022-12-18T05:42:34;-12.50;99.90
16736;DHT22;17990;49.548;9.730;2022-12-18T05:45:01;-12.40;99.90
16736;DHT22;17990;49.548;9.730;2022-12-18T05:47:28;-12.50;99.90
16736;DHT22;17990;49.548;9.730;2022-12-18T05:49:55;-12.50;99.90
16736;DHT22;17990;49.548;9.730;2022-12-18T05:52:22;-12.50;99.90
16736;DHT22;17990;49.548;9.730;2022-12-18T05:54:50;-12.50;99.90
16736;DHT22;17990;49.548;9.730;2022-12-18T05:57:17;-12.50;99.90
16736;DHT22;17990;49.548;9.730;2022-12-18T05:59:45;-12.50;99.90
16736;DHT22;17990;49.548;9.730;2022-12-18T06:02:12;-12.50;99.90
16736;DHT22;17990;49.548;9.730;2022-12-18T06:04:39;-12.40;99.90
16736;DHT22;17990;49.548;9.730;2022-12-18T06:07:06;-12.40;99.90
16736;DHT22;17990;49.548;9.730;2022-12-18T06:09:32;-12.50;99.90
16736;DHT22;17990;49.548;9.730;2022-12-18T06:11:59;-12.50;99.90
16736;DHT22;17990;49.548;9.730;2022-12-18T06:14:26;-12.60;99.90
16736;DHT22;17990;49.548;9.730;2022-12-18T06:16:55;-12.70;99.90
16736;DHT22;17990;49.548;9.730;2022-12-18T06:19:22;-12.70;99.90
16736;DHT22;17990;49.548;9.730;2022-12-18T06:21:48;-12.70;99.90
16736;DHT22;17990;49.548;9.730;2022-12-18T06:24:16;-12.70;99.90
16736;DHT22;17990;49.548;9.730;2022-12-18T06:26:43;-12.60;99.90
16736;DHT22;17990;49.548;9.730;2022-12-18T06:29:10;-12.60;99.90
16736;DHT22;17990;49.548;9.730;2022-12-18T06:31:37;-12.60;99.90
16736;DHT22;17990;49.548;9.730;2022-12-18T06:34:05;-12.70;99.90
16736;DHT22;17990;49.548;9.730;2022-12-18T06:36:32;-12.80;99.90
16736;DHT22;17990;49.548;9.730;2022-12-18T06:38:59;-12.80;99.90
16736;DHT22;17990;49.548;9.730;2022-12-18T06:41:26;-12.80;99.90
16736;DHT22;17990;49.548;9.730;2022-12-18T06:43:53;-12.70;99.90
16736;DHT22;17990;49.548;9.730;2022-12-18T06:46:20;-12.70;99.90
16736;DHT22;17990;49.548;9.730;2022-12-18T06:48:48;-12.60;99.90
16736;DHT22;17990;49.548;9.730;2022-12-18T06:51:19;-12.60;99.90
16736;DHT22;17990;49.548;9.730;2022-12-18T06:53:46;-12.60;99.90
16736;DHT22;17990;49.548;9.730;2022-12-18T06:56:13;-12.60;99.90
16736;DHT22;17990;49.548;9.730;2022-12-18T06:58:40;-12.60;99.90
16736;DHT22;17990;49.548;9.730;2022-12-18T07:01:09;-12.60;99.90
16736;DHT22;17990;49.548;9.730;2022-12-18T07:03:37;-12.70;99.90
16736;DHT22;17990;49.548;9.730;2022-12-18T07:06:05;-12.70;99.90
16736;DHT22;17990;49.548;9.730;2022-12-18T07:08:34;-12.60;99.90
16736;DHT22;17990;49.548;9.730;2022-12-18T07:11:03;-12.60;99.90
16736;DHT22;17990;49.548;9.730;2022-12-18T07:13:30;-12.70;99.90
16736;DHT22;17990;49.548;9.730;2022-12-18T07:16:06;-12.70;99.90
16736;DHT22;17990;49.548;9.730;2022-12-18T07:18:34;-12.70;99.90
16736;DHT22;17990;49.548;9.730;2022-12-18T07:21:05;-12.70;99.90
16736;DHT22;17990;49.548;9.730;2022-12-18T07:23:35;-12.70;99.90
16736;DHT22;17990;49.548;9.730;2022-12-18T07:26:03;-12.60;99.90
16736;DHT22;17990;49.548;9.730;2022-12-18T07:28:30;-12.60;99.90
16736;DHT22;17990;49.548;9.730;2022-12-18T07:30:57;-12.60;99.90
16736;DHT22;17990;49.548;9.730;2022-12-18T07:33:26;-12.60;99.90
16736;DHT22;17990;49.548;9.730;2022-12-18T07:35:53;-12.60;99.90
16736;DHT22;17990;49.548;9.730;2022-12-18T07:38:20;-12.60;99.90
16736;DHT22;17990;49.548;9.730;2022-12-18T07:40:49;-12.50;99.90
16736;DHT22;17990;49.548;9.730;2022-12-18T07:43:16;-12.50;99.90
16736;DHT22;17990;49.548;9.730;2022-12-18T07:45:43;-12.50;99.90
16736;DHT22;17990;49.548;9.730;2022-12-18T07:48:10;-12.50;99.90
16736;DHT22;17990;49.548;9.730;2022-12-18T07:50:37;-12.50;99.90
16736;DHT22;17990;49.548;9.730;2022-12-18T07:53:04;-12.40;99.90
16736;DHT22;17990;49.548;9.730;2022-12-18T07:55:31;-12.30;99.90
16736;DHT22;17990;49.548;9.730;2022-12-18T07:58:02;-12.30;99.90
16736;DHT22;17990;49.548;9.730;2022-12-18T08:00:29;-12.20;99.90
16736;DHT22;17990;49.548;9.730;2022-12-18T08:02:56;-12.20;99.90
16736;DHT22;17990;49.548;9.730;2022-12-18T08:05:23;-12.10;99.90
16736;DHT22;17990;49.548;9.730;2022-12-18T08:07:50;-12.10;99.90
16736;DHT22;17990;49.548;9.730;2022-12-18T08:10:18;-12.00;99.90
16736;DHT22;17990;49.548;9.730;2022-12-18T08:12:45;-11.90;99.90
16736;DHT22;17990;49.548;9.730;2022-12-18T08:15:13;-11.70;99.90
16736;DHT22;17990;49.548;9.730;2022-12-18T08:17:40;-11.50;99.90
16736;DHT22;17990;49.548;9.730;2022-12-18T08:20:08;-11.30;99.90
16736;DHT22;17990;49.548;9.730;2022-12-18T08:22:36;-11.10;99.90
16736;DHT22;17990;49.548;9.730;2022-12-18T08:25:05;-11.00;99.90
16736;DHT22;17990;49.548;9.730;2022-12-18T08:27:32;-10.80;99.90
16736;DHT22;17990;49.548;9.730;2022-12-18T08:29:59;-10.70;99.90
16736;DHT22;17990;49.548;9.730;2022-12-18T08:32:28;-10.60;99.90
16736;DHT22;17990;49.548;9.730;2022-12-18T08:34:55;-10.50;99.90
16736;DHT22;17990;49.548;9.730;2022-12-18T08:37:21;-10.40;99.90
16736;DHT22;17990;49.548;9.730;2022-12-18T08:39:48;-10.20;99.90
16736;DHT22;17990;49.548;9.730;2022-12-18T08:42:15;-10.10;99.90
16736;DHT22;17990;49.548;9.730;2022-12-18T08:45:00;-10.10;99.90
16736;DHT22;17990;49.548;9.730;2022-12-18T08:47:28;-9.90;99.90
16736;DHT22;17990;49.548;9.730;2022-12-18T08:49:55;-9.70;99.90
16736;DHT22;17990;49.548;9.730;2022-12-18T08:52:22;-9.70;99.90
16736;DHT22;17990;49.548;9.730;2022-12-18T08:54:49;-9.50;99.90
16736;DHT22;17990;49.548;9.730;2022-12-18T08:57:16;-9.40;99.90
16736;DHT22;17990;49.548;9.730;2022-12-18T08:59:43;-9.20;99.90
16736;DHT22;17990;49.548;9.730;2022-12-18T09:02:10;-9.10;99.90
16736;DHT22;17990;49.548;9.730;2022-12-18T09:04:39;-9.00;99.90
16736;DHT22;17990;49.548;9.730;2022-12-18T09:07:06;-9.00;99.90
16736;DHT22;17990;49.548;9.730;2022-12-18T09:09:35;-8.90;99.90
16736;DHT22;17990;49.548;9.730;2022-12-18T09:12:02;-8.70;99.90
16736;DHT22;17990;49.548;9.730;2022-12-18T09:14:29;-8.60;99.90
16736;DHT22;17990;49.548;9.730;2022-12-18T09:16:56;-8.50;99.90
16736;DHT22;17990;49.548;9.730;2022-12-18T09:19:23;-8.30;99.90
16736;DHT22;17990;49.548;9.730;2022-12-18T09:21:52;-8.20;99.90
16736;DHT22;17990;49.548;9.730;2022-12-18T09:24:18;-8.10;99.90
16736;DHT22;17990;49.548;9.730;2022-12-18T09:26:45;-8.00;99.90
16736;DHT22;17990;49.548;9.730;2022-12-18T09:29:12;-7.80;99.90
16736;DHT22;17990;49.548;9.730;2022-12-18T09:31:39;-7.70;99.90
16736;DHT22;17990;49.548;9.730;2022-12-18T09:34:07;-7.70;99.90
16736;DHT22;17990;49.548;9.730;2022-12-18T09:36:34;-7.50;99.90
16736;DHT22;17990;49.548;9.730;2022-12-18T09:39:02;-7.40;99.90
16736;DHT22;17990;49.548;9.730;2022-12-18T09:41:41;-7.30;99.90
16736;DHT22;17990;49.548;9.730;2022-12-18T09:44:16;-7.20;99.90
16736;DHT22;17990;49.548;9.730;2022-12-18T09:46:49;-7.20;99.90
16736;DHT22;17990;49.548;9.730;2022-12-18T09:49:23;-7.00;99.90
16736;DHT22;17990;49.548;9.730;2022-12-18T09:51:55;-6.90;99.90
16736;DHT22;17990;49.548;9.730;2022-12-18T09:54:29;-7.00;99.90
16736;DHT22;17990;49.548;9.730;2022-12-18T09:56:59;-6.80;99.90
16736;DHT22;17990;49.548;9.730;2022-12-18T09:59:30;-6.70;99.90
16736;DHT22;17990;49.548;9.730;2022-12-18T10:02:02;-6.60;99.90
16736;DHT22;17990;49.548;9.730;2022-12-18T10:04:42;-6.50;99.90
16736;DHT22;17990;49.548;9.730;2022-12-18T10:07:13;-6.40;99.90
16736;DHT22;17990;49.548;9.730;2022-12-18T10:09:49;-6.30;99.90
16736;DHT22;17990;49.548;9.730;2022-12-18T10:12:25;-6.20;99.90
16736;DHT22;17990;49.548;9.730;2022-12-18T10:15:01;-6.10;99.90
16736;DHT22;17990;49.548;9.730;2022-12-18T10:17:36;-6.10;99.90
16736;DHT22;17990;49.548;9.730;2022-12-18T10:20:13;-6.20;99.90
16736;DHT22;17990;49.548;9.730;2022-12-18T10:22:48;-6.00;99.90
16736;DHT22;17990;49.548;9.730;2022-12-18T10:25:23;-5.80;99.90
16736;DHT22;17990;49.548;9.730;2022-12-18T10:27:54;-5.60;99.90
16736;DHT22;17990;49.548;9.730;2022-12-18T10:30:25;-5.60;99.90
16736;DHT22;17990;49.548;9.730;2022-12-18T10:33:00;-5.50;99.90
16736;DHT22;17990;49.548;9.730;2022-12-18T10:35:28;-5.40;99.90
16736;DHT22;17990;49.548;9.730;2022-12-18T10:38:05;-5.40;99.90
16736;DHT22;17990;49.548;9.730;2022-12-18T10:40:48;-5.30;99.90
16736;DHT22;17990;49.548;9.730;2022-12-18T10:43:21;-5.20;99.90
16736;DHT22;17990;49.548;9.730;2022-12-18T10:45:59;-5.10;99.90
16736;DHT22;17990;49.548;9.730;2022-12-18T10:48:33;-5.20;99.90
16736;DHT22;17990;49.548;9.730;2022-12-18T10:51:02;-5.10;99.90
16736;DHT22;17990;49.548;9.730;2022-12-18T10:53:31;-5.00;99.90
16736;DHT22;17990;49.548;9.730;2022-12-18T10:56:04;-4.80;99.90
16736;DHT22;17990;49.548;9.730;2022-12-18T10:58:35;-4.70;99.90
16736;DHT22;17990;49.548;9.730;2022-12-18T11:01:08;-4.60;99.90
16736;DHT22;17990;49.548;9.730;2022-12-18T11:03:39;-4.50;99.90
16736;DHT22;17990;49.548;9.730;2022-12-18T11:06:10;-4.40;99.90
16736;DHT22;17990;49.548;9.730;2022-12-18T11:08:42;-4.20;99.90
16736;DHT22;17990;49.548;9.730;2022-12-18T11:11:20;-4.10;99.90
16736;DHT22;17990;49.548;9.730;2022-12-18T11:14:00;-4.20;99.90
16736;DHT22;17990;49.548;9.730;2022-12-18T11:16:31;-4.20;99.90
16736;DHT22;17990;49.548;9.730;2022-12-18T11:19:20;-4.20;99.90
16736;DHT22;17990;49.548;9.730;2022-12-18T11:21:50;-4.20;99.90
16736;DHT22;17990;49.548;9.730;2022-12-18T11:24:26;-4.10;99.90
16736;DHT22;17990;49.548;9.730;2022-12-18T11:26:58;-3.90;99.90
16736;DHT22;17990;49.548;9.730;2022-12-18T11:29:35;-3.70;99.90
16736;DHT22;17990;49.548;9.730;2022-12-18T11:32:29;-3.60;99.90
16736;DHT22;17990;49.548;9.730;2022-12-18T11:35:18;-3.40;99.90
16736;DHT22;17990;49.548;9.730;2022-12-18T11:37:50;-3.30;99.90
16736;DHT22;17990;49.548;9.730;2022-12-18T11:40:27;-3.20;99.90
16736;DHT22;17990;49.548;9.730;2022-12-18T11:43:02;-3.10;99.90
16736;DHT22;17990;49.548;9.730;2022-12-18T11:45:35;-2.90;99.90
16736;DHT22;17990;49.548;9.730;2022-12-18T11:48:12;-2.80;99.90
16736;DHT22;17990;49.548;9.730;2022-12-18T11:50:47;-2.60;99.90
16736;DHT22;17990;49.548;9.730;2022-12-18T11:53:17;-2.40;99.90
16736;DHT22;17990;49.548;9.730;2022-12-18T11:55:53;-2.30;99.90
16736;DHT22;17990;49.548;9.730;2022-12-18T11:58:40;-2.20;99.90
16736;DHT22;17990;49.548;9.730;2022-12-18T12:01:18;-2.00;99.90
16736;DHT22;17990;49.548;9.730;2022-12-18T12:04:11;-1.90;99.90
16736;DHT22;17990;49.548;9.730;2022-12-18T12:06:58;-1.80;99.90
16736;DHT22;17990;49.548;9.730;2022-12-18T12:09:35;-1.70;99.90
16736;DHT22;17990;49.548;9.730;2022-12-18T12:12:21;-1.70;99.90
16736;DHT22;17990;49.548;9.730;2022-12-18T12:15:03;-1.60;99.90
16736;DHT22;17990;49.548;9.730;2022-12-18T12:17:42;-1.60;99.90
16736;DHT22;17990;49.548;9.730;2022-12-18T12:20:19;-1.50;99.90
16736;DHT22;17990;49.548;9.730;2022-12-18T12:22:54;-1.40;99.90
16736;DHT22;17990;49.548;9.730;2022-12-18T12:25:33;-1.30;99.90
16736;DHT22;17990;49.548;9.730;2022-12-18T12:28:19;-1.30;99.90
16736;DHT22;17990;49.548;9.730;2022-12-18T12:31:00;-1.20;99.90
16736;DHT22;17990;49.548;9.730;2022-12-18T12:33:38;-1.10;99.90
16736;DHT22;17990;49.548;9.730;2022-12-18T12:36:15;-1.00;99.90
16736;DHT22;17990;49.548;9.730;2022-12-18T12:38:50;-1.10;99.90
16736;DHT22;17990;49.548;9.730;2022-12-18T12:41:20;-1.00;99.90
16736;DHT22;17990;49.548;9.730;2022-12-18T12:44:14;-0.90;99.90
16736;DHT22;17990;49.548;9.730;2022-12-18T12:46:45;-0.70;99.90
16736;DHT22;17990;49.548;9.730;2022-12-18T12:49:15;-0.70;99.90
16736;DHT22;17990;49.548;9.730;2022-12-18T12:51:47;-0.70;99.90
16736;DHT22;17990;49.548;9.730;2022-12-18T12:54:21;-0.90;99.90
16736;DHT22;17990;49.548;9.730;2022-12-18T12:56:53;-1.10;99.90
16736;DHT22;17990;49.548;9.730;2022-12-18T12:59:30;-1.10;99.90
16736;DHT22;17990;49.548;9.730;2022-12-18T13:02:11;-1.10;99.90
16736;DHT22;17990;49.548;9.730;2022-12-18T13:04:47;-1.10;99.90
16736;DHT22;17990;49.548;9.730;2022-12-18T13:07:26;-1.10;99.90
16736;DHT22;17990;49.548;9.730;2022-12-18T13:10:22;-1.20;99.90
16736;DHT22;17990;49.548;9.730;2022-12-18T13:12:54;-1.10;99.90
16736;DHT22;17990;49.548;9.730;2022-12-18T13:15:28;-1.10;99.90
16736;DHT22;17990;49.548;9.730;2022-12-18T13:18:17;-1.10;99.90
16736;DHT22;17990;49.548;9.730;2022-12-18T13:20:47;-1.10;99.90
16736;DHT22;17990;49.548;9.730;2022-12-18T13:23:25;-1.10;99.90
16736;DHT22;17990;49.548;9.730;2022-12-18T13:25:55;-1.00;99.90
16736;DHT22;17990;49.548;9.730;2022-12-18T13:28:24;-1.00;99.90
16736;DHT22;17990;49.548;9.730;2022-12-18T13:34:27;-1.10;99.90
16736;DHT22;17990;49.548;9.730;2022-12-18T13:36:57;-1.20;99.90
16736;DHT22;17990;49.548;9.730;2022-12-18T13:43:44;-1.30;99.90
16736;DHT22;17990;49.548;9.730;2022-12-18T13:46:21;-1.30;99.90
16736;DHT22;17990;49.548;9.730;2022-12-18T13:48:53;-1.40;99.90
16736;DHT22;17990;49.548;9.730;2022-12-18T13:51:23;-1.40;99.90
16736;DHT22;17990;49.548;9.730;2022-12-18T13:53:53;-1.40;99.90
16736;DHT22;17990;49.548;9.730;2022-12-18T13:56:25;-1.40;99.90
16736;DHT22;17990;49.548;9.730;2022-12-18T13:59:13;-1.50;99.90
16736;DHT22;17990;49.548;9.730;2022-12-18T14:01:47;-1.50;99.90
16736;DHT22;17990;49.548;9.730;2022-12-18T14:04:22;-1.60;99.90
16736;DHT22;17990;49.548;9.730;2022-12-18T14:06:56;-1.60;99.90
16736;DHT22;17990;49.548;9.730;2022-12-18T14:09:27;-1.60;99.90
16736;DHT22;17990;49.548;9.730;2022-12-18T14:11:57;-1.60;99.90
16736;DHT22;17990;49.548;9.730;2022-12-18T14:14:41;-1.60;99.90
16736;DHT22;17990;49.548;9.730;2022-12-18T14:17:10;-1.60;99.90
16736;DHT22;17990;49.548;9.730;2022-12-18T14:19:41;-1.60;99.90
16736;DHT22;17990;49.548;9.730;2022-12-18T14:22:15;-1.70;99.90
16736;DHT22;17990;49.548;9.730;2022-12-18T14:24:43;-1.70;99.90
16736;DHT22;17990;49.548;9.730;2022-12-18T14:27:22;-1.70;99.90
16736;DHT22;17990;49.548;9.730;2022-12-18T14:29:50;-1.60;99.90
16736;DHT22;17990;49.548;9.730;2022-12-18T14:32:19;-1.60;99.90
16736;DHT22;17990;49.548;9.730;2022-12-18T14:34:47;-1.70;99.90
16736;DHT22;17990;49.548;9.730;2022-12-18T14:37:17;-1.60;99.90
16736;DHT22;17990;49.548;9.730;2022-12-18T14:39:55;-1.60;99.90
16736;DHT22;17990;49.548;9.730;2022-12-18T14:42:25;-1.50;99.90
16736;DHT22;17990;49.548;9.730;2022-12-18T14:48:06;-1.60;99.90
16736;DHT22;17990;49.548;9.730;2022-12-18T14:50:34;-1.60;99.90
16736;DHT22;17990;49.548;9.730;2022-12-18T14:53:02;-1.60;99.90
16736;DHT22;17990;49.548;9.730;2022-12-18T14:55:28;-1.60;99.90
16736;DHT22;17990;49.548;9.730;2022-12-18T14:57:57;-1.70;99.90
16736;DHT22;17990;49.548;9.730;2022-12-18T15:00:25;-1.80;99.90
16736;DHT22;17990;49.548;9.730;2022-12-18T15:02:54;-1.80;99.90
16736;DHT22;17990;49.548;9.730;2022-12-18T15:05:26;-1.80;99.90
16736;DHT22;17990;49.548;9.730;2022-12-18T15:07:57;-1.80;99.90
16736;DHT22;17990;49.548;9.730;2022-12-18T15:10:26;-1.80;99.90
16736;DHT22;17990;49.548;9.730;2022-12-18T15:13:09;-1.90;99.90
16736;DHT22;17990;49.548;9.730;2022-12-18T15:15:45;-1.90;99.90
16736;DHT22;17990;49.548;9.730;2022-12-18T15:18:15;-2.00;99.90
16736;DHT22;17990;49.548;9.730;2022-12-18T15:20:44;-2.00;99.90
16736;DHT22;17990;49.548;9.730;2022-12-18T15:23:16;-1.90;99.90
16736;DHT22;17990;49.548;9.730;2022-12-18T15:25:45;-2.00;99.90
16736;DHT22;17990;49.548;9.730;2022-12-18T15:28:22;-2.00;99.90
16736;DHT22;17990;49.548;9.730;2022-12-18T15:31:21;-2.00;99.90
16736;DHT22;17990;49.548;9.730;2022-12-18T15:34:12;-2.00;99.90
16736;DHT22;17990;49.548;9.730;2022-12-18T15:36:40;-2.10;99.90
16736;DHT22;17990;49.548;9.730;2022-12-18T15:39:10;-2.10;99.90
16736;DHT22;17990;49.548;9.730;2022-12-18T15:41:38;-2.20;99.90
16736;DHT22;17990;49.548;9.730;2022-12-18T15:44:22;-2.20;99.90
16736;DHT22;17990;49.548;9.730;2022-12-18T15:46:48;-2.30;99.90
16736;DHT22;17990;49.548;9.730;2022-12-18T15:49:15;-2.40;99.90
16736;DHT22;17990;49.548;9.730;2022-12-18T15:51:42;-2.40;99.90
16736;DHT22;17990;49.548;9.730;2022-12-18T15:54:11;-2.40;99.90
16736;DHT22;17990;49.548;9.730;2022-12-18T15:56:41;-2.50;99.90
16736;DHT22;17990;49.548;9.730;2022-12-18T15:59:26;-2.50;99.90